Weather Data

Pearl Creek Farm: 8878 N Farm Road 75, Walnut Grove MO 65770

<== Previous Day (Friday 15 Jun 2018) | Next Day (Sunday 17 Jun 2018) ==>

Summary Precipitation Data For Saturday 16 June 2018

ElementValueUnits
Precipitation0"
Notes(none)
SourcePearl Creek Farm

Summary Temperature Data For Saturday 16 June 2018

ElementValueUnits
High Temperature94 oF
Low Temperature75 oF
Average Temperature85 oF
High Humidity77 %
Low Humidity42 %
Average Humidity59 %
SourceSpringfield-Branson National Airport (SGF)

Detail Temperature Data For Saturday 16 June 2018

Date / TimeTemp (F)RH (%)Dew Pt (F)Report Date / TimeSource
2018-06-16 00:52:00 79 69 68.0 2019-02-02 11:24:24.260017 Springfield-Branson National Airport (SGF)
2018-06-16 01:52:00 78 71 68.0 2019-02-02 11:24:24.260017 Springfield-Branson National Airport (SGF)
2018-06-16 02:52:00 76 77 68.0 2019-02-02 11:24:24.260017 Springfield-Branson National Airport (SGF)
2018-06-16 03:52:00 76 77 68.0 2019-02-02 11:24:24.260017 Springfield-Branson National Airport (SGF)
2018-06-16 04:52:00 75 76 67.0 2019-02-02 11:24:24.260017 Springfield-Branson National Airport (SGF)
2018-06-16 05:52:00 76 77 68.0 2019-02-02 11:24:24.260017 Springfield-Branson National Airport (SGF)
2018-06-16 06:52:00 80 67 68.0 2019-02-02 11:24:24.260017 Springfield-Branson National Airport (SGF)
2018-06-16 07:52:00 83 61 68.0 2019-02-02 11:24:24.260017 Springfield-Branson National Airport (SGF)
2018-06-16 08:52:00 86 57 69.0 2019-02-02 11:24:24.260017 Springfield-Branson National Airport (SGF)
2018-06-16 09:52:00 88 55 70.0 2019-02-02 11:24:24.260017 Springfield-Branson National Airport (SGF)
2018-06-16 10:52:00 88 54 69.0 2019-02-02 11:24:24.260017 Springfield-Branson National Airport (SGF)
2018-06-16 11:52:00 91 49 69.0 2019-02-02 11:24:24.260017 Springfield-Branson National Airport (SGF)
2018-06-16 12:52:00 89 52 69.0 2019-02-02 11:24:24.260017 Springfield-Branson National Airport (SGF)
2018-06-16 13:52:00 93 46 69.0 2019-02-02 11:24:24.260017 Springfield-Branson National Airport (SGF)
2018-06-16 14:52:00 94 43 68.0 2019-02-02 11:24:24.260017 Springfield-Branson National Airport (SGF)
2018-06-16 15:52:00 93 42 67.0 2019-02-02 11:24:24.260017 Springfield-Branson National Airport (SGF)
2018-06-16 16:52:00 92 44 67.0 2019-02-02 11:24:24.260017 Springfield-Branson National Airport (SGF)
2018-06-16 17:52:00 91 47 68.0 2019-02-02 11:24:24.260017 Springfield-Branson National Airport (SGF)
2018-06-16 18:52:00 88 52 68.0 2019-02-02 11:24:24.260017 Springfield-Branson National Airport (SGF)
2018-06-16 19:52:00 86 55 68.0 2019-02-02 11:24:24.260017 Springfield-Branson National Airport (SGF)
2018-06-16 20:52:00 84 57 67.0 2019-02-02 11:24:24.260017 Springfield-Branson National Airport (SGF)
2018-06-16 21:52:00 83 61 68.0 2019-02-02 11:24:24.260017 Springfield-Branson National Airport (SGF)
2018-06-16 22:52:00 82 63 68.0 2019-02-02 11:24:24.260017 Springfield-Branson National Airport (SGF)
2018-06-16 23:52:00 81 65 68.0 2019-02-02 11:24:24.260017 Springfield-Branson National Airport (SGF)

A total of 24 rows are displayed.